Time;durP1;ratioP1;P1;durP2;ratioP2;P2;SDS_P1;SDS_P2;PMS_P1;PMS_P2;Temp;Humidity;BMP_temperature;BMP_pressure;BME280_temperature;BME280_humidity;BME280_pressure;Samples;Min_cycle;Max_cycle;Signal;HPM_P1;HPM_P2
2022/10/23 00:00:31;;;;;;;17.17;6.75;;;;;;;;;;5094583;28;20030;-68
2022/10/23 00:02:58;;;;;;;20.42;8.32;;;;;;;;;;5094410;28;20068;-67
2022/10/23 00:05:25;;;;;;;14.32;7.25;;;;;;;;;;5094316;28;20028;-68
2022/10/23 00:07:55;;;;;;;17.88;6.82;;;;;;;;;;5094100;28;20427;-68
2022/10/23 00:10:22;;;;;;;15.65;6.93;;;;;;;;;;5093054;28;20042;-68
2022/10/23 00:12:49;;;;;;;15.98;6.72;;;;;;;;;;5094172;28;20036;-68
2022/10/23 00:15:17;;;;;;;16.08;6.82;;;;;;;;;;5094343;28;20190;-68
2022/10/23 00:17:43;;;;;;;16.85;7.07;;;;;;;;;;5094166;28;20046;-68
2022/10/23 00:20:10;;;;;;;16.38;6.85;;;;;;;;;;5094055;28;20028;-68
2022/10/23 00:22:36;;;;;;;16.40;6.65;;;;;;;;;;5093758;28;20027;-68
2022/10/23 00:25:04;;;;;;;14.43;7.50;;;;;;;;;;5094093;28;20477;-68
2022/10/23 00:27:30;;;;;;;14.15;6.35;;;;;;;;;;5093959;28;20024;-69
2022/10/23 00:29:57;;;;;;;18.25;7.20;;;;;;;;;;5094287;28;20058;-68
2022/10/23 00:32:23;;;;;;;19.30;7.22;;;;;;;;;;5093929;28;20412;-69
2022/10/23 00:34:49;;;;;;;14.05;6.63;;;;;;;;;;5093927;28;20027;-68
2022/10/23 00:37:16;;;;;;;15.13;6.95;;;;;;;;;;5093735;28;20035;-68
2022/10/23 00:39:42;;;;;;;16.52;6.47;;;;;;;;;;5092464;28;20032;-68
2022/10/23 00:42:12;;;;;;;17.85;6.55;;;;;;;;;;5093943;28;20034;-68
2022/10/23 00:44:41;;;;;;;20.55;7.45;;;;;;;;;;5093664;28;20026;-69
2022/10/23 00:47:08;;;;;;;15.57;5.95;;;;;;;;;;5093778;28;20032;-68
2022/10/23 00:49:34;;;;;;;11.55;6.05;;;;;;;;;;5093470;28;20038;-68
2022/10/23 00:52:03;;;;;;;12.13;5.78;;;;;;;;;;5091919;28;20028;-68
2022/10/23 00:54:32;;;;;;;17.52;6.35;;;;;;;;;;5093595;28;20028;-68
2022/10/23 00:57:00;;;;;;;12.63;5.75;;;;;;;;;;5093721;28;20374;-68
2022/10/23 00:59:27;;;;;;;15.23;5.70;;;;;;;;;;5093239;28;20380;-68
2022/10/23 01:01:54;;;;;;;12.57;6.22;;;;;;;;;;5092981;28;20035;-68
2022/10/23 01:04:21;;;;;;;14.60;6.68;;;;;;;;;;5093464;28;20030;-68
2022/10/23 01:06:55;;;;;;;14.48;6.72;;;;;;;;;;5093240;28;20032;-69
2022/10/23 01:09:34;;;;;;;11.23;5.63;;;;;;;;;;5093253;28;20027;-67
2022/10/23 01:12:04;;;;;;;13.10;6.43;;;;;;;;;;5093154;28;20024;-68
2022/10/23 01:14:39;;;;;;;11.50;5.85;;;;;;;;;;5092963;28;20040;-68
2022/10/23 01:17:09;;;;;;;16.02;5.85;;;;;;;;;;5093102;28;20497;-68
2022/10/23 01:19:44;;;;;;;13.40;6.00;;;;;;;;;;5092541;28;20310;-69
2022/10/23 01:22:29;;;;;;;15.02;5.65;;;;;;;;;;5092957;28;20032;-68
2022/10/23 01:25:01;;;;;;;10.38;5.38;;;;;;;;;;5093129;28;20020;-68
2022/10/23 01:27:39;;;;;;;11.25;5.80;;;;;;;;;;5091827;28;20034;-68
2022/10/23 01:30:07;;;;;;;12.57;5.47;;;;;;;;;;5093074;28;20030;-68
2022/10/23 01:32:40;;;;;;;13.27;5.75;;;;;;;;;;5092714;28;20046;-68
2022/10/23 01:35:16;;;;;;;12.85;5.80;;;;;;;;;;5092500;28;20386;-68
2022/10/23 01:37:43;;;;;;;9.20;5.00;;;;;;;;;;5092703;28;20024;-68
2022/10/23 01:40:16;;;;;;;11.45;5.63;;;;;;;;;;5092705;28;20024;-68
2022/10/23 01:42:45;;;;;;;15.70;6.20;;;;;;;;;;5092652;28;20523;-69
2022/10/23 01:45:47;;;;;;;17.27;6.20;;;;;;;;;;5093007;28;20031;-68
2022/10/23 01:48:17;;;;;;;17.08;5.88;;;;;;;;;;5090568;28;20032;-69
2022/10/23 01:50:44;;;;;;;18.10;6.40;;;;;;;;;;5090302;28;20043;-68
2022/10/23 01:53:11;;;;;;;15.77;6.57;;;;;;;;;;5090806;28;20031;-68
2022/10/23 01:55:38;;;;;;;12.68;5.35;;;;;;;;;;5090577;28;20050;-68
2022/10/23 01:58:07;;;;;;;14.65;5.28;;;;;;;;;;5090465;28;20026;-68
2022/10/23 02:00:35;;;;;;;11.75;5.50;;;;;;;;;;5090298;28;20036;-68
2022/10/23 02:03:03;;;;;;;13.60;6.00;;;;;;;;;;5090285;28;20036;-68
2022/10/23 02:05:30;;;;;;;16.27;6.25;;;;;;;;;;5090357;28;20028;-68
2022/10/23 02:07:57;;;;;;;14.82;5.50;;;;;;;;;;5090670;28;20028;-68
2022/10/23 02:10:39;;;;;;;14.98;5.78;;;;;;;;;;5090375;28;20032;-69
2022/10/23 02:13:08;;;;;;;10.68;5.88;;;;;;;;;;5091580;28;20059;-68
2022/10/23 02:15:39;;;;;;;16.80;5.85;;;;;;;;;;5094362;28;20044;-68
2022/10/23 02:18:06;;;;;;;;;;;;;;;;;;5094360;28;20024;-69
2022/10/23 02:20:32;;;;;;;16.63;5.13;;;;;;;;;;5094234;28;20449;-68
2022/10/23 02:23:01;;;;;;;11.45;5.22;;;;;;;;;;5079589;28;20082;-69
2022/10/23 02:25:43;;;;;;;14.68;5.32;;;;;;;;;;5076094;28;20378;-69
2022/10/23 02:28:13;;;;;;;13.73;5.90;;;;;;;;;;5076035;28;20013;-68
2022/10/23 02:30:41;;;;;;;17.20;4.90;;;;;;;;;;5076114;28;20019;-68
2022/10/23 02:33:08;;;;;;;17.33;5.55;;;;;;;;;;5075653;28;20481;-68
2022/10/23 02:35:35;;;;;;;11.80;5.20;;;;;;;;;;5075703;28;20408;-69
2022/10/23 02:38:01;;;;;;;12.07;4.45;;;;;;;;;;5075904;28;20481;-69
2022/10/23 02:40:38;;;;;;;12.60;4.82;;;;;;;;;;5075704;28;20039;-69
2022/10/23 02:43:10;;;;;;;14.15;4.80;;;;;;;;;;5075952;28;20035;-68
2022/10/23 02:45:59;;;;;;;13.00;5.15;;;;;;;;;;5094497;28;20019;-68
2022/10/23 02:48:32;;;;;;;14.93;4.93;;;;;;;;;;5095221;28;20044;-68
2022/10/23 02:51:09;;;;;;;8.85;3.85;;;;;;;;;;5095493;28;20024;-68
2022/10/23 02:53:40;;;;;;;18.10;5.20;;;;;;;;;;5095959;28;20027;-69
2022/10/23 02:56:20;;;;;;;15.40;5.18;;;;;;;;;;5095997;28;20028;-68
2022/10/23 02:58:55;;;;;;;7.75;4.28;;;;;;;;;;5095659;28;20069;-69
2022/10/23 03:01:26;;;;;;;14.00;5.20;;;;;;;;;;5095065;28;20035;-68
2022/10/23 03:03:54;;;;;;;14.20;4.75;;;;;;;;;;5094573;28;20378;-68
2022/10/23 03:06:21;;;;;;;15.05;5.10;;;;;;;;;;5095502;28;20388;-68
2022/10/23 03:09:02;;;;;;;14.10;5.22;;;;;;;;;;5094187;28;20434;-69
2022/10/23 03:11:29;;;;;;;13.95;5.07;;;;;;;;;;5095575;28;20023;-68
2022/10/23 03:13:56;;;;;;;15.95;5.13;;;;;;;;;;5095672;28;20501;-68
2022/10/23 03:16:22;;;;;;;19.27;5.55;;;;;;;;;;5095337;28;20092;-68
2022/10/23 03:18:48;;;;;;;11.75;4.93;;;;;;;;;;5095413;28;20589;-68
2022/10/23 03:21:15;;;;;;;20.25;4.72;;;;;;;;;;5095264;28;20501;-68
2022/10/23 03:23:41;;;;;;;13.15;4.47;;;;;;;;;;5095044;28;20020;-69
2022/10/23 03:26:07;;;;;;;17.98;5.28;;;;;;;;;;5095493;28;20109;-68
2022/10/23 03:28:34;;;;;;;16.25;5.18;;;;;;;;;;5095454;28;20354;-68
2022/10/23 03:31:01;;;;;;;10.25;4.32;;;;;;;;;;5094787;28;20024;-68
2022/10/23 03:33:27;;;;;;;12.25;4.68;;;;;;;;;;5093884;28;20024;-69
2022/10/23 03:35:54;;;;;;;13.95;5.55;;;;;;;;;;5095273;28;20040;-68
2022/10/23 03:38:20;;;;;;;16.65;5.78;;;;;;;;;;5094978;28;20383;-68
2022/10/23 03:40:46;;;;;;;24.35;5.65;;;;;;;;;;5094890;28;20043;-68
2022/10/23 03:43:13;;;;;;;18.20;6.07;;;;;;;;;;5094960;28;20030;-68
2022/10/23 03:45:39;;;;;;;26.80;5.90;;;;;;;;;;5094527;28;20020;-68
2022/10/23 03:48:06;;;;;;;23.80;6.00;;;;;;;;;;5095063;28;20030;-69
2022/10/23 03:50:33;;;;;;;21.08;6.03;;;;;;;;;;5094778;28;20392;-69
2022/10/23 03:52:59;;;;;;;20.15;6.63;;;;;;;;;;5094810;28;20032;-68
2022/10/23 03:55:26;;;;;;;14.30;5.28;;;;;;;;;;5094829;28;20024;-69
2022/10/23 03:57:53;;;;;;;19.25;6.10;;;;;;;;;;5094736;28;20028;-69
2022/10/23 04:00:19;;;;;;;23.95;6.35;;;;;;;;;;5093961;28;20032;-68
2022/10/23 04:02:45;;;;;;;23.52;6.38;;;;;;;;;;5094592;28;20028;-68
2022/10/23 04:05:12;;;;;;;22.40;6.50;;;;;;;;;;5094763;28;20032;-68
2022/10/23 04:07:38;;;;;;;17.60;5.80;;;;;;;;;;5093516;28;20031;-68
2022/10/23 04:10:05;;;;;;;21.58;5.38;;;;;;;;;;5094444;28;20388;-69
2022/10/23 04:12:31;;;;;;;17.70;5.72;;;;;;;;;;5094393;28;20020;-69
2022/10/23 04:14:57;;;;;;;23.05;6.10;;;;;;;;;;5093766;28;20062;-69
2022/10/23 04:17:24;;;;;;;19.55;6.03;;;;;;;;;;5094514;28;20020;-69
2022/10/23 04:19:50;;;;;;;23.48;6.28;;;;;;;;;;5094300;28;20030;-68
2022/10/23 04:22:16;;;;;;;24.50;6.30;;;;;;;;;;5094353;28;20039;-68
2022/10/23 04:24:45;;;;;;;30.52;5.80;;;;;;;;;;5094109;28;20035;-68
2022/10/23 04:27:12;;;;;;;23.92;6.20;;;;;;;;;;5093979;28;20073;-67
2022/10/23 04:29:38;;;;;;;27.77;5.80;;;;;;;;;;5093761;28;20032;-68
2022/10/23 04:32:06;;;;;;;22.40;6.03;;;;;;;;;;5093978;28;20036;-68
2022/10/23 04:34:32;;;;;;;22.75;6.15;;;;;;;;;;5094084;28;20028;-68
2022/10/23 04:36:59;;;;;;;27.25;6.00;;;;;;;;;;5093288;28;20038;-68
2022/10/23 04:39:25;;;;;;;24.30;6.68;;;;;;;;;;5093911;28;20072;-69
2022/10/23 04:41:51;;;;;;;23.17;6.05;;;;;;;;;;5092525;28;20040;-68
2022/10/23 04:44:17;;;;;;;23.67;6.10;;;;;;;;;;5093202;28;20012;-69
2022/10/23 04:46:44;;;;;;;22.35;5.97;;;;;;;;;;5093605;28;20031;-69
2022/10/23 04:49:10;;;;;;;36.90;6.65;;;;;;;;;;5093886;28;20025;-69
2022/10/23 04:51:37;;;;;;;29.92;6.68;;;;;;;;;;5093334;28;20020;-68
2022/10/23 04:54:04;;;;;;;23.70;6.22;;;;;;;;;;5093599;28;20538;-69
2022/10/23 04:56:30;;;;;;;23.73;6.55;;;;;;;;;;5093589;28;20024;-68
2022/10/23 04:58:56;;;;;;;28.33;5.90;;;;;;;;;;5092966;28;20384;-68
2022/10/23 05:01:22;;;;;;;23.63;6.05;;;;;;;;;;5093379;28;20035;-68
2022/10/23 05:03:49;;;;;;;26.45;6.22;;;;;;;;;;5093328;28;20481;-68
2022/10/23 05:06:15;;;;;;;25.45;6.72;;;;;;;;;;5093300;28;20036;-68
2022/10/23 05:08:41;;;;;;;27.45;7.00;;;;;;;;;;5093260;28;20013;-68
2022/10/23 05:11:08;;;;;;;26.02;6.10;;;;;;;;;;5093482;28;20035;-68
2022/10/23 05:13:34;;;;;;;30.58;6.63;;;;;;;;;;5092938;28;20386;-69
2022/10/23 05:16:01;;;;;;;29.33;6.63;;;;;;;;;;5093444;28;20104;-69
2022/10/23 05:18:27;;;;;;;27.90;6.68;;;;;;;;;;5093470;28;20034;-68
2022/10/23 05:20:57;;;;;;;23.50;5.80;;;;;;;;;;5093010;28;20028;-68
2022/10/23 05:23:24;;;;;;;25.20;5.97;;;;;;;;;;5093203;28;20028;-69
2022/10/23 05:25:51;;;;;;;25.00;6.55;;;;;;;;;;5093007;28;20023;-68
2022/10/23 05:28:17;;;;;;;27.52;6.97;;;;;;;;;;5093094;28;20026;-67
2022/10/23 05:30:43;;;;;;;24.15;6.20;;;;;;;;;;5092965;28;20030;-67
2022/10/23 05:33:10;;;;;;;32.03;7.13;;;;;;;;;;5092923;28;20526;-67
2022/10/23 05:35:37;;;;;;;21.20;6.43;;;;;;;;;;5092748;28;20034;-68
2022/10/23 05:38:03;;;;;;;21.27;6.18;;;;;;;;;;5092870;28;20422;-68
2022/10/23 05:40:30;;;;;;;23.33;6.30;;;;;;;;;;5092555;28;20036;-68
2022/10/23 05:42:56;;;;;;;22.90;5.55;;;;;;;;;;5092889;28;20026;-67
2022/10/23 05:45:22;;;;;;;28.88;6.15;;;;;;;;;;5092510;28;20024;-68
2022/10/23 05:47:49;;;;;;;27.80;5.65;;;;;;;;;;5091674;28;20027;-68
2022/10/23 05:50:15;;;;;;;24.15;6.20;;;;;;;;;;5092709;28;20028;-68
2022/10/23 05:52:45;;;;;;;27.65;6.03;;;;;;;;;;5092558;28;20054;-68
2022/10/23 05:55:11;;;;;;;19.90;5.05;;;;;;;;;;5092275;28;20025;-68
2022/10/23 05:57:37;;;;;;;20.55;5.82;;;;;;;;;;5092459;28;20028;-68
2022/10/23 06:00:04;;;;;;;29.15;5.43;;;;;;;;;;5092507;28;20072;-68
2022/10/23 06:02:31;;;;;;;21.90;6.10;;;;;;;;;;5092517;28;20031;-68
2022/10/23 06:04:58;;;;;;;24.02;5.57;;;;;;;;;;5092589;28;20035;-68
2022/10/23 06:07:28;;;;;;;26.85;5.78;;;;;;;;;;5092714;28;20030;-68
2022/10/23 06:09:54;;;;;;;24.87;5.80;;;;;;;;;;5092220;28;20020;-68
2022/10/23 06:12:21;;;;;;;27.50;6.40;;;;;;;;;;5092841;28;20028;-68
2022/10/23 06:14:48;;;;;;;27.15;6.00;;;;;;;;;;5092300;28;20040;-68
2022/10/23 06:17:14;;;;;;;29.00;6.10;;;;;;;;;;5092947;28;20035;-69
2022/10/23 06:19:41;;;;;;;26.65;6.32;;;;;;;;;;5092297;28;20031;-69
2022/10/23 06:22:07;;;;;;;21.80;6.00;;;;;;;;;;5092289;28;20558;-68
2022/10/23 06:24:33;;;;;;;23.55;6.10;;;;;;;;;;5092124;28;20016;-68
2022/10/23 06:27:00;;;;;;;24.42;6.70;;;;;;;;;;5093086;28;20042;-68
2022/10/23 06:29:26;;;;;;;28.75;7.05;;;;;;;;;;5092070;28;20034;-68
2022/10/23 06:31:52;;;;;;;30.50;6.70;;;;;;;;;;5093222;28;20020;-68
2022/10/23 06:34:18;;;;;;;30.10;7.80;;;;;;;;;;5093810;28;20446;-67
2022/10/23 06:36:45;;;;;;;25.48;5.75;;;;;;;;;;5092778;28;20036;-68
2022/10/23 06:39:11;;;;;;;28.67;6.57;;;;;;;;;;5092170;28;20024;-68
2022/10/23 06:41:40;;;;;;;21.52;6.10;;;;;;;;;;5092130;28;20036;-68
2022/10/23 06:44:09;;;;;;;25.83;6.72;;;;;;;;;;5092501;28;20016;-68
2022/10/23 06:46:35;;;;;;;34.05;6.32;;;;;;;;;;5092968;28;20038;-68
2022/10/23 06:49:02;;;;;;;21.40;5.85;;;;;;;;;;5092420;28;20024;-68
2022/10/23 06:51:28;;;;;;;34.70;7.15;;;;;;;;;;5092040;28;20020;-68
2022/10/23 06:53:55;;;;;;;30.20;7.15;;;;;;;;;;5091714;28;20473;-69
2022/10/23 06:56:24;;;;;;;32.05;6.55;;;;;;;;;;5091070;28;20028;-68
2022/10/23 06:58:50;;;;;;;22.65;6.70;;;;;;;;;;5092829;28;20016;-69
2022/10/23 07:01:16;;;;;;;25.02;5.93;;;;;;;;;;5095663;28;20044;-68
2022/10/23 07:03:43;;;;;;;32.75;5.60;;;;;;;;;;5094546;28;20020;-68
2022/10/23 07:06:10;;;;;;;23.63;5.72;;;;;;;;;;5095435;28;20036;-69
2022/10/23 07:08:36;;;;;;;22.83;5.93;;;;;;;;;;5095299;28;20518;-69
2022/10/23 07:11:04;;;;;;;24.15;6.10;;;;;;;;;;5095475;28;20453;-68
2022/10/23 07:13:30;;;;;;;21.75;6.15;;;;;;;;;;5095374;28;20044;-68
2022/10/23 07:15:57;;;;;;;24.60;5.60;;;;;;;;;;5095803;28;20028;-68
2022/10/23 07:18:23;;;;;;;26.83;5.82;;;;;;;;;;5095408;28;20027;-68
2022/10/23 07:20:56;;;;;;;24.08;5.25;;;;;;;;;;5095299;28;20105;-68
2022/10/23 07:23:22;;;;;;;23.27;5.68;;;;;;;;;;5094925;28;20395;-68
2022/10/23 07:25:49;;;;;;;23.23;5.15;;;;;;;;;;5095699;28;20020;-68
2022/10/23 07:28:15;;;;;;;24.02;5.57;;;;;;;;;;5095125;28;20016;-68
2022/10/23 07:30:41;;;;;;;29.92;6.15;;;;;;;;;;5095426;28;20024;-68
2022/10/23 07:33:10;;;;;;;21.05;4.80;;;;;;;;;;5095480;28;20357;-68
2022/10/23 07:35:38;;;;;;;30.15;6.88;;;;;;;;;;5095303;28;20042;-68
2022/10/23 07:38:04;;;;;;;27.88;5.15;;;;;;;;;;5095950;28;20016;-69
2022/10/23 07:40:30;;;;;;;27.52;5.47;;;;;;;;;;5095724;28;20469;-68
2022/10/23 07:42:57;;;;;;;28.92;5.95;;;;;;;;;;5095410;28;20032;-68
2022/10/23 07:45:23;;;;;;;20.67;4.65;;;;;;;;;;5095527;28;20419;-68
2022/10/23 07:47:50;;;;;;;21.73;4.82;;;;;;;;;;5095303;28;20074;-68
2022/10/23 07:50:17;;;;;;;22.70;5.10;;;;;;;;;;5095343;28;20028;-68
2022/10/23 07:52:43;;;;;;;27.63;5.03;;;;;;;;;;5094815;28;20050;-68
2022/10/23 07:55:10;;;;;;;25.60;5.22;;;;;;;;;;5095291;28;20057;-68
2022/10/23 07:57:38;;;;;;;28.80;5.32;;;;;;;;;;5095067;28;20062;-68
2022/10/23 08:00:05;;;;;;;19.58;4.90;;;;;;;;;;5094763;28;20020;-68
2022/10/23 08:02:31;;;;;;;21.58;5.68;;;;;;;;;;5095412;28;20028;-69
2022/10/23 08:04:57;;;;;;;23.58;5.55;;;;;;;;;;5095313;28;20024;-68
2022/10/23 08:07:24;;;;;;;20.67;5.47;;;;;;;;;;5095072;28;20032;-69
2022/10/23 08:09:50;;;;;;;24.23;5.00;;;;;;;;;;5094333;28;20473;-69
2022/10/23 08:12:16;;;;;;;24.83;5.55;;;;;;;;;;5094363;28;20028;-68
2022/10/23 08:14:43;;;;;;;26.45;5.93;;;;;;;;;;5094756;28;20044;-69
2022/10/23 08:17:10;;;;;;;23.63;5.00;;;;;;;;;;5094403;28;20020;-68
2022/10/23 08:19:36;;;;;;;22.10;5.80;;;;;;;;;;5094389;28;20027;-69
2022/10/23 08:22:02;;;;;;;25.60;5.45;;;;;;;;;;5093795;28;20036;-68
2022/10/23 08:24:29;;;;;;;29.38;5.25;;;;;;;;;;5094108;28;20071;-68
2022/10/23 08:26:55;;;;;;;30.30;5.90;;;;;;;;;;5094088;28;20081;-69
2022/10/23 08:29:22;;;;;;;36.45;6.07;;;;;;;;;;5094249;28;20032;-68
2022/10/23 08:31:48;;;;;;;35.28;6.43;;;;;;;;;;5093702;28;20020;-68
2022/10/23 08:34:15;;;;;;;21.60;6.10;;;;;;;;;;5093714;28;20378;-68
2022/10/23 08:36:41;;;;;;;22.27;5.80;;;;;;;;;;5093787;28;20058;-67
2022/10/23 08:39:07;;;;;;;29.77;5.00;;;;;;;;;;5093874;28;20523;-68
2022/10/23 08:41:38;;;;;;;27.00;6.25;;;;;;;;;;5093750;28;20435;-68
2022/10/23 08:44:05;;;;;;;;;;;;;;;;;;5094406;28;20012;-68
2022/10/23 08:46:35;;;;;;;32.83;6.28;;;;;;;;;;5093686;28;20116;-67
2022/10/23 08:49:22;;;;;;;33.55;6.00;;;;;;;;;;5093384;28;20027;-67
2022/10/23 08:51:50;;;;;;;26.15;6.55;;;;;;;;;;5093294;28;20028;-68
2022/10/23 08:54:43;;;;;;;28.80;5.72;;;;;;;;;;5093582;28;20613;-68
2022/10/23 08:57:12;;;;;;;30.85;6.22;;;;;;;;;;5091987;28;20038;-68
2022/10/23 08:59:45;;;;;;;22.38;5.97;;;;;;;;;;5093870;28;20020;-67
2022/10/23 09:02:26;;;;;;;24.55;5.97;;;;;;;;;;5093496;28;20446;-68
2022/10/23 09:04:54;;;;;;;32.53;5.85;;;;;;;;;;5093085;28;20404;-68
2022/10/23 09:07:25;;;;;;;29.23;6.38;;;;;;;;;;5093428;28;20028;-67
2022/10/23 09:10:06;;;;;;;23.23;5.90;;;;;;;;;;5093320;28;20396;-68
2022/10/23 09:12:32;;;;;;;;;;;;;;;;;;5093885;28;20028;-69
2022/10/23 09:15:13;;;;;;;23.65;6.32;;;;;;;;;;5093153;28;19922;-68
2022/10/23 09:17:41;;;;;;;19.77;5.65;;;;;;;;;;5093383;28;20042;-68
2022/10/23 09:20:28;;;;;;;25.40;5.70;;;;;;;;;;5092775;28;20016;-68
2022/10/23 09:23:12;;;;;;;30.25;6.00;;;;;;;;;;5092773;28;20042;-68
2022/10/23 09:25:39;;;;;;;24.33;5.72;;;;;;;;;;5093125;28;20028;-68
2022/10/23 09:28:05;;;;;;;24.90;5.55;;;;;;;;;;5093230;28;20030;-68
2022/10/23 09:30:32;;;;;;;25.33;6.88;;;;;;;;;;5093088;28;20020;-69
2022/10/23 09:32:59;;;;;;;17.95;5.50;;;;;;;;;;5092575;28;20038;-69
2022/10/23 09:35:27;;;;;;;35.88;5.97;;;;;;;;;;5093304;28;20024;-68
2022/10/23 09:37:54;;;;;;;28.35;6.18;;;;;;;;;;5092960;28;20015;-68
2022/10/23 09:40:23;;;;;;;23.30;5.28;;;;;;;;;;5092603;28;20028;-68
2022/10/23 09:42:52;;;;;;;32.95;6.78;;;;;;;;;;5092868;28;20492;-68
2022/10/23 09:45:22;;;;;;;32.08;6.03;;;;;;;;;;5092718;28;20024;-68
2022/10/23 09:47:49;;;;;;;30.52;5.90;;;;;;;;;;5092329;28;20031;-69
2022/10/23 09:50:21;;;;;;;27.92;5.93;;;;;;;;;;5092488;28;20036;-68
2022/10/23 09:52:52;;;;;;;24.05;6.55;;;;;;;;;;5092325;28;20043;-68
2022/10/23 09:55:20;;;;;;;28.38;6.43;;;;;;;;;;5092597;28;20038;-68
2022/10/23 09:57:46;;;;;;;25.73;6.22;;;;;;;;;;5092605;28;20038;-69
2022/10/23 10:00:12;;;;;;;19.15;5.25;;;;;;;;;;5092850;28;20024;-68
2022/10/23 10:02:40;;;;;;;24.15;6.63;;;;;;;;;;5092060;28;20028;-68
2022/10/23 10:05:32;;;;;;;27.83;5.85;;;;;;;;;;5092611;28;20028;-68
2022/10/23 10:08:02;;;;;;;28.60;5.47;;;;;;;;;;5090548;28;20407;-68
2022/10/23 10:10:31;;;;;;;27.77;5.53;;;;;;;;;;5092639;28;20030;-69
2022/10/23 10:13:01;;;;;;;16.55;4.90;;;;;;;;;;5092204;28;20050;-68
2022/10/23 10:15:31;;;;;;;30.53;6.13;;;;;;;;;;5092463;28;20046;-67
2022/10/23 10:18:00;;;;;;;39.40;6.77;;;;;;;;;;5092104;28;20392;-68
2022/10/23 10:20:26;;;;;;;29.40;6.28;;;;;;;;;;5092268;28;20254;-68
2022/10/23 10:22:55;;;;;;;20.90;5.63;;;;;;;;;;5092547;28;20028;-68
2022/10/23 10:25:30;;;;;;;20.65;5.93;;;;;;;;;;5092237;28;20022;-68
2022/10/23 10:27:57;;;;;;;25.70;6.30;;;;;;;;;;5092536;28;20028;-68
2022/10/23 10:30:24;;;;;;;29.75;6.22;;;;;;;;;;5092057;28;20381;-68
2022/10/23 10:32:50;;;;;;;28.80;6.65;;;;;;;;;;5092210;28;20446;-69
2022/10/23 10:35:25;;;;;;;27.33;6.97;;;;;;;;;;5095902;28;20117;-69
2022/10/23 10:37:57;;;;;;;28.55;6.18;;;;;;;;;;5096269;28;20020;-68
2022/10/23 10:40:32;;;;;;;19.00;5.40;;;;;;;;;;5095970;28;20022;-68
2022/10/23 10:43:23;;;;;;;31.95;6.43;;;;;;;;;;5096407;28;20030;-69
2022/10/23 10:45:49;;;;;;;;;;;;;;;;;;5075984;28;20490;-69
2022/10/23 10:48:24;;;;;;;28.30;6.28;;;;;;;;;;5075852;28;19904;-68
2022/10/23 10:50:54;;;;;;;26.63;5.55;;;;;;;;;;5077629;28;20025;-69
2022/10/23 10:53:26;;;;;;;22.73;5.97;;;;;;;;;;5095969;28;20023;-68
2022/10/23 10:55:53;;;;;;;33.67;6.13;;;;;;;;;;5095949;28;20031;-68
2022/10/23 10:58:38;;;;;;;27.27;6.78;;;;;;;;;;5095801;28;20020;-69
2022/10/23 11:01:27;;;;;;;24.30;6.22;;;;;;;;;;5095534;28;20547;-68
2022/10/23 11:04:04;;;;;;;26.63;5.40;;;;;;;;;;5053430;28;20029;-69
2022/10/23 11:06:34;;;;;;;22.33;4.85;;;;;;;;;;5053512;28;20043;-68
2022/10/23 11:09:04;;;;;;;31.75;6.07;;;;;;;;;;5053155;28;20033;-69
2022/10/23 11:11:34;;;;;;;17.08;5.47;;;;;;;;;;5053170;28;20551;-69
2022/10/23 11:14:01;;;;;;;30.55;6.28;;;;;;;;;;5052570;28;20150;-68
2022/10/23 11:16:35;;;;;;;23.92;5.65;;;;;;;;;;5053379;28;20029;-68
2022/10/23 11:19:13;;;;;;;24.65;5.57;;;;;;;;;;5053144;28;20521;-68
2022/10/23 11:21:42;;;;;;;28.05;6.18;;;;;;;;;;5052859;28;20055;-68
2022/10/23 11:24:11;;;;;;;24.02;5.53;;;;;;;;;;5053025;28;20058;-68
2022/10/23 11:26:40;;;;;;;25.10;5.45;;;;;;;;;;5052757;28;20033;-69
2022/10/23 11:29:24;;;;;;;27.38;5.97;;;;;;;;;;5052625;28;20533;-69
2022/10/23 11:32:09;;;;;;;27.23;5.43;;;;;;;;;;5052856;28;20112;-67
2022/10/23 11:34:54;;;;;;;22.00;5.05;;;;;;;;;;5052734;28;20033;-69
2022/10/23 11:37:21;;;;;;;23.65;5.47;;;;;;;;;;5035915;28;20021;-69
2022/10/23 11:40:02;;;;;;;31.38;6.22;;;;;;;;;;5053560;28;20025;-68
2022/10/23 11:42:40;;;;;;;25.02;5.32;;;;;;;;;;5094998;28;20038;-69
2022/10/23 11:45:25;;;;;;;30.15;5.70;;;;;;;;;;5094489;28;20396;-69
2022/10/23 11:48:03;;;;;;;26.13;5.88;;;;;;;;;;5094870;28;20030;-68
2022/10/23 11:50:37;;;;;;;30.90;5.75;;;;;;;;;;5094860;28;20030;-68
2022/10/23 11:53:09;;;;;;;21.15;5.70;;;;;;;;;;5094647;28;20030;-68
2022/10/23 11:55:36;;;;;;;32.83;6.18;;;;;;;;;;5094868;28;20159;-68
2022/10/23 11:58:18;;;;;;;28.10;6.40;;;;;;;;;;5094695;28;20016;-68
2022/10/23 12:00:52;;;;;;;28.77;5.82;;;;;;;;;;5094517;28;20480;-68
2022/10/23 12:03:21;;;;;;;31.80;5.95;;;;;;;;;;5094542;28;20485;-69
2022/10/23 12:05:55;;;;;;;25.55;5.75;;;;;;;;;;5094836;28;20032;-68
2022/10/23 12:08:25;;;;;;;32.42;6.75;;;;;;;;;;5094732;28;20024;-68
2022/10/23 12:10:54;;;;;;;26.10;6.05;;;;;;;;;;5094433;28;20031;-68
2022/10/23 12:13:36;;;;;;;36.53;6.30;;;;;;;;;;5093817;28;20040;-68
2022/10/23 12:16:03;;;;;;;28.40;5.72;;;;;;;;;;5094456;28;20036;-68
2022/10/23 12:18:30;;;;;;;29.58;6.30;;;;;;;;;;5094502;28;20028;-68
2022/10/23 12:20:58;;;;;;;34.65;6.78;;;;;;;;;;5094470;28;20043;-68
2022/10/23 12:23:33;;;;;;;37.80;6.82;;;;;;;;;;5094384;28;20084;-68
2022/10/23 12:26:08;;;;;;;38.00;7.50;;;;;;;;;;5094259;28;20027;-69
2022/10/23 12:28:58;;;;;;;25.55;6.32;;;;;;;;;;5093972;28;20020;-69
2022/10/23 12:31:27;;;;;;;26.83;6.60;;;;;;;;;;5093455;28;20412;-68
2022/10/23 12:34:17;;;;;;;29.67;6.13;;;;;;;;;;5094140;28;20031;-68
2022/10/23 12:36:58;;;;;;;42.13;6.82;;;;;;;;;;5094191;28;20030;-68
2022/10/23 12:39:29;;;;;;;27.85;6.15;;;;;;;;;;5094054;28;20049;-68
2022/10/23 12:41:55;;;;;;;32.58;7.03;;;;;;;;;;5093464;28;20039;-69
2022/10/23 12:44:24;;;;;;;26.83;6.63;;;;;;;;;;5092467;28;20022;-68
2022/10/23 12:46:52;;;;;;;25.67;5.45;;;;;;;;;;5093632;28;20028;-68
2022/10/23 12:49:20;;;;;;;32.05;7.25;;;;;;;;;;5094052;28;20024;-68
2022/10/23 12:51:54;;;;;;;28.30;7.78;;;;;;;;;;5093464;28;20392;-68
2022/10/23 12:54:20;;;;;;;32.83;8.32;;;;;;;;;;5093760;28;20020;-68
2022/10/23 12:56:47;;;;;;;39.22;7.93;;;;;;;;;;5092979;28;20022;-69
2022/10/23 12:59:18;;;;;;;35.15;6.63;;;;;;;;;;5093542;28;20023;-68
2022/10/23 13:01:45;;;;;;;36.42;8.63;;;;;;;;;;5093456;28;20039;-68
2022/10/23 13:04:11;;;;;;;35.50;7.50;;;;;;;;;;5093386;28;20512;-69
2022/10/23 13:06:38;;;;;;;29.83;7.40;;;;;;;;;;5093482;28;20062;-68
2022/10/23 13:09:06;;;;;;;31.48;6.85;;;;;;;;;;5093304;28;20020;-68
2022/10/23 13:11:33;;;;;;;29.50;7.40;;;;;;;;;;5092997;28;20032;-68
2022/10/23 13:14:00;;;;;;;21.98;6.45;;;;;;;;;;5093280;28;20044;-69
2022/10/23 13:16:26;;;;;;;33.00;7.00;;;;;;;;;;5093107;28;20024;-68
2022/10/23 13:18:53;;;;;;;33.10;7.47;;;;;;;;;;5093106;28;20038;-68
2022/10/23 13:21:24;;;;;;;23.40;5.57;;;;;;;;;;5093219;28;20036;-68
2022/10/23 13:23:51;;;;;;;36.40;7.00;;;;;;;;;;5092985;28;20026;-69
2022/10/23 13:26:24;;;;;;;24.10;5.35;;;;;;;;;;5091464;28;20515;-68
2022/10/23 13:28:50;;;;;;;30.88;6.80;;;;;;;;;;5093142;28;20031;-68
2022/10/23 13:31:17;;;;;;;29.83;5.82;;;;;;;;;;5092956;28;20032;-68
2022/10/23 13:33:43;;;;;;;32.72;6.03;;;;;;;;;;5093269;28;20020;-68
2022/10/23 13:36:12;;;;;;;34.60;6.88;;;;;;;;;;5092875;28;20480;-68
2022/10/23 13:38:39;;;;;;;34.08;6.88;;;;;;;;;;5092884;28;20023;-68
2022/10/23 13:41:11;;;;;;;30.20;6.88;;;;;;;;;;5092549;28;20024;-68
2022/10/23 13:43:37;;;;;;;38.42;7.30;;;;;;;;;;5092973;28;20032;-68
2022/10/23 13:46:03;;;;;;;25.98;7.53;;;;;;;;;;5092929;28;20024;-69
2022/10/23 13:48:30;;;;;;;33.85;7.95;;;;;;;;;;5091719;28;20023;-68
2022/10/23 13:51:16;;;;;;;29.45;7.97;;;;;;;;;;5092528;28;20024;-68
2022/10/23 13:53:43;;;;;;;30.73;7.97;;;;;;;;;;5091805;28;20392;-68
2022/10/23 13:56:11;;;;;;;38.03;8.65;;;;;;;;;;5091312;28;20084;-69
2022/10/23 13:58:37;;;;;;;29.10;7.53;;;;;;;;;;5092688;28;20034;-69
2022/10/23 14:01:04;;;;;;;27.50;7.30;;;;;;;;;;5092658;28;20027;-68
2022/10/23 14:03:30;;;;;;;29.80;7.55;;;;;;;;;;5092602;28;20032;-69
2022/10/23 14:05:56;;;;;;;29.08;7.90;;;;;;;;;;5092520;28;20046;-68
2022/10/23 14:08:23;;;;;;;29.38;7.53;;;;;;;;;;5092508;28;20030;-68
2022/10/23 14:10:49;;;;;;;36.22;7.90;;;;;;;;;;5096674;28;20032;-68
2022/10/23 14:13:15;;;;;;;37.42;7.88;;;;;;;;;;5096503;28;20042;-68
2022/10/23 14:15:42;;;;;;;29.45;7.85;;;;;;;;;;5096600;28;20032;-68
2022/10/23 14:18:08;;;;;;;25.73;7.68;;;;;;;;;;5096603;28;20020;-68
2022/10/23 14:20:34;;;;;;;28.20;6.50;;;;;;;;;;5096672;28;20042;-68
2022/10/23 14:23:01;;;;;;;31.38;7.68;;;;;;;;;;5096064;28;20032;-68
2022/10/23 14:25:27;;;;;;;32.28;7.50;;;;;;;;;;5096450;28;20034;-68
2022/10/23 14:27:54;;;;;;;29.70;7.72;;;;;;;;;;5096509;28;20036;-68
2022/10/23 14:30:20;;;;;;;32.88;7.20;;;;;;;;;;5096520;28;20028;-68
2022/10/23 14:32:46;;;;;;;28.73;7.35;;;;;;;;;;5096271;28;20382;-68
2022/10/23 14:35:13;;;;;;;26.65;7.72;;;;;;;;;;5096390;28;20020;-69
2022/10/23 14:37:39;;;;;;;34.88;7.40;;;;;;;;;;5096099;28;20020;-68
2022/10/23 14:40:06;;;;;;;24.13;6.90;;;;;;;;;;5096334;28;20091;-69
2022/10/23 14:42:33;;;;;;;30.17;6.93;;;;;;;;;;5096047;28;20032;-68